Time;durP1;ratioP1;P1;durP2;ratioP2;P2;SDS_P1;SDS_P2;PMS_P1;PMS_P2;Temp;Humidity;BMP_temperature;BMP_pressure;BME280_temperature;BME280_humidity;BME280_pressure;Samples;Min_cycle;Max_cycle;Signal;HPM_P1;HPM_P2
2023/07/05 00:01:15;;;;;;;17.00;12.13;;;;;;;22.51;90.27;94811.44;5075414;28;20453;-84
2023/07/05 00:03:42;;;;;;;13.37;11.90;;;;;;;22.52;90.34;94808.56;5076101;28;20443;-84
2023/07/05 00:06:09;;;;;;;12.83;11.23;;;;;;;22.45;90.85;94806.91;5074550;28;20450;-83
2023/07/05 00:08:36;;;;;;;14.10;11.33;;;;;;;22.49;91.33;94808.97;5074970;28;20452;-83
2023/07/05 00:11:04;;;;;;;13.50;11.17;;;;;;;22.49;91.66;94808.97;5074560;28;20481;-83
2023/07/05 00:13:31;;;;;;;12.80;10.90;;;;;;;22.50;92.03;94812.47;5075133;28;20449;-82
2023/07/05 00:15:59;;;;;;;14.07;11.87;;;;;;;22.38;91.90;94803.44;5075312;28;20438;-83
2023/07/05 00:18:26;;;;;;;14.10;12.13;;;;;;;22.30;92.35;94806.31;5075661;28;20439;-83
2023/07/05 00:20:52;;;;;;;11.60;9.83;;;;;;;22.34;93.17;94812.91;5075815;28;20792;-83
2023/07/05 00:23:19;;;;;;;13.90;12.50;;;;;;;22.33;92.96;94808.56;5075435;28;20435;-83
2023/07/05 00:25:46;;;;;;;17.70;12.43;;;;;;;22.38;93.19;94809.59;5075188;28;20479;-83
2023/07/05 00:28:14;;;;;;;11.90;10.67;;;;;;;22.38;92.76;94814.13;5074623;28;20442;-83
2023/07/05 00:30:43;;;;;;;13.00;11.40;;;;;;;22.36;92.59;94811.66;5074499;28;20977;-83
2023/07/05 00:33:10;;;;;;;12.97;11.40;;;;;;;22.30;92.90;94808.97;5074885;28;20804;-83
2023/07/05 00:35:37;;;;;;;13.33;11.70;;;;;;;22.24;93.24;94808.75;5039878;28;20467;-83
2023/07/05 00:38:04;;;;;;;12.83;11.13;;;;;;;22.30;93.74;94819.69;5074785;28;20845;-84
2023/07/05 00:40:30;;;;;;;14.27;11.87;;;;;;;22.33;93.69;94811.25;5056397;28;20811;-84
2023/07/05 00:42:57;;;;;;;16.80;12.60;;;;;;;22.25;94.21;94826.44;5074798;28;20420;-84
2023/07/05 00:52:12;;;;;;;14.13;12.47;;;;;;;22.05;97.58;94822.91;5032512;28;20499;-84
2023/07/05 00:54:43;;;;;;;19.77;13.17;;;;;;;21.77;100.00;94824.88;5031857;28;20460;-84
2023/07/05 00:57:15;;;;;;;19.77;12.70;;;;;;;21.82;99.79;94825.91;4983074;28;21304;-84
2023/07/05 00:59:47;;;;;;;20.30;11.90;;;;;;;21.88;99.98;94821.59;5032562;28;20478;-84
2023/07/05 01:02:15;;;;;;;18.80;13.97;;;;;;;21.95;99.86;94817.91;5032121;28;20957;-84
2023/07/05 01:04:42;;;;;;;18.33;13.93;;;;;;;21.95;99.65;94817.09;5032405;28;20551;-83
2023/07/05 01:07:10;;;;;;;14.10;12.63;;;;;;;21.94;99.93;94823.47;5031908;28;20538;-84
2023/07/05 01:09:37;;;;;;;20.00;13.40;;;;;;;22.01;99.70;94813.63;5032650;28;20474;-83
2023/07/05 01:12:14;;;;;;;16.87;13.70;;;;;;;22.08;99.71;94813.66;5031850;28;20431;-83
2023/07/05 01:14:47;;;;;;;15.27;13.67;;;;;;;22.09;99.83;94793.94;5032425;28;20813;-84
2023/07/05 01:17:21;;;;;;;14.77;13.20;;;;;;;22.16;98.93;94803.59;5032085;28;20795;-84
2023/07/05 01:20:02;;;;;;;17.57;13.70;;;;;;;22.23;98.28;94804.44;5064061;28;20440;-84
2023/07/05 01:22:50;;;;;;;16.07;13.27;;;;;;;22.18;96.45;94796.19;5074348;28;20802;-84
2023/07/05 01:25:41;;;;;;;13.83;12.13;;;;;;;22.09;95.55;94785.91;5073217;28;20946;-83
2023/07/05 01:28:26;;;;;;;17.10;13.50;;;;;;;22.05;95.51;94793.53;5074331;28;20448;-84
2023/07/05 01:31:16;;;;;;;16.00;12.97;;;;;;;22.06;95.80;94791.66;5073579;28;20861;-84
2023/07/05 01:33:52;;;;;;;23.47;13.33;;;;;;;22.02;95.44;94793.06;5043013;28;20463;-84
2023/07/05 01:36:20;;;;;;;14.57;13.07;;;;;;;21.98;95.54;94784.66;5073365;28;20446;-83
2023/07/05 01:38:47;;;;;;;17.23;12.93;;;;;;;21.90;95.82;94787.47;5073937;28;20428;-84
2023/07/05 01:41:14;;;;;;;16.80;13.30;;;;;;;21.83;96.25;94787.47;5073658;28;20453;-84
2023/07/05 01:43:45;;;;;;;14.33;12.17;;;;;;;21.74;96.40;94793.22;5073702;28;20442;-84
2023/07/05 01:46:23;;;;;;;17.90;12.50;;;;;;;21.70;97.01;94795.47;5073640;28;20442;-84
2023/07/05 01:49:04;;;;;;;14.60;13.10;;;;;;;21.68;97.06;94788.66;5039309;28;20454;-83
2023/07/05 01:51:38;;;;;;;15.90;12.87;;;;;;;21.75;96.56;94782.31;5074008;28;20483;-84
2023/07/05 01:54:10;;;;;;;15.93;12.43;;;;;;;21.79;96.22;94786.22;5073609;28;20436;-84
2023/07/05 01:56:44;;;;;;;13.93;12.33;;;;;;;21.87;95.97;94782.53;5074087;28;20482;-84
2023/07/05 01:59:13;;;;;;;15.83;12.63;;;;;;;21.90;95.98;94779.47;5073324;28;20463;-84
2023/07/05 02:01:42;;;;;;;14.43;12.50;;;;;;;21.91;95.82;94776.59;5073441;28;20440;-84
2023/07/05 02:04:13;;;;;;;16.83;12.80;;;;;;;21.93;96.24;94773.72;5073284;28;20455;-85
2023/07/05 02:06:42;;;;;;;15.80;13.60;;;;;;;21.92;96.17;94766.72;5054750;28;20477;-84
2023/07/05 02:09:09;;;;;;;14.03;12.13;;;;;;;21.94;96.17;94768.16;5073147;28;20451;-85
2023/07/05 02:11:37;;;;;;;16.53;13.70;;;;;;;21.92;96.25;94764.06;5073907;28;20986;-83
2023/07/05 02:14:04;;;;;;;16.83;12.57;;;;;;;21.90;96.55;94766.09;5073036;28;20450;-84
2023/07/05 02:16:31;;;;;;;16.50;13.97;;;;;;;21.94;96.57;94770.03;5073407;28;20436;-84
2023/07/05 02:18:57;;;;;;;17.47;13.60;;;;;;;21.98;96.53;94765.13;5073436;28;20439;-83
2023/07/05 02:21:26;;;;;;;18.23;13.93;;;;;;;22.01;96.21;94768.22;5073256;28;20435;-84
2023/07/05 02:23:54;;;;;;;15.23;13.63;;;;;;;21.98;96.23;94767.78;5073396;28;20793;-84
2023/07/05 02:26:21;;;;;;;16.47;14.10;;;;;;;21.90;96.37;94768.78;5073262;28;20434;-84
2023/07/05 02:28:48;;;;;;;15.10;13.00;;;;;;;21.91;96.45;94765.91;5073267;28;20438;-84
2023/07/05 02:31:16;;;;;;;19.20;13.00;;;;;;;21.94;96.27;94767.34;5073111;28;20569;-84
2023/07/05 02:33:44;;;;;;;20.30;13.83;;;;;;;21.95;96.44;94769.00;5073008;28;20776;-84
2023/07/05 02:36:13;;;;;;;17.47;13.57;;;;;;;21.97;96.63;94764.25;5038264;28;20993;-84
2023/07/05 02:38:41;;;;;;;15.70;13.43;;;;;;;21.98;96.63;94760.59;5056890;28;20441;-84
2023/07/05 02:41:09;;;;;;;18.50;15.10;;;;;;;21.98;96.46;94765.13;5076748;28;20452;-85
2023/07/05 02:43:36;;;;;;;16.77;13.17;;;;;;;21.94;96.59;94768.16;5077058;28;20926;-83
2023/07/05 02:46:05;;;;;;;16.90;14.40;;;;;;;21.92;96.99;94770.22;5076555;28;20915;-84
2023/07/05 02:48:32;;;;;;;18.40;13.80;;;;;;;21.84;97.15;94757.06;5077393;28;20862;-84
2023/07/05 02:54:21;;;;;;;16.07;13.80;;;;;;;21.80;97.43;94765.69;5075468;28;20432;-84
2023/07/05 02:56:48;;;;;;;15.40;13.43;;;;;;;21.83;97.09;94765.28;5076582;28;20461;-84
2023/07/05 02:59:15;;;;;;;15.33;13.40;;;;;;;21.84;96.95;94772.28;5076676;28;20527;-84
2023/07/05 03:01:42;;;;;;;16.83;12.10;;;;;;;21.81;96.93;94765.47;5076477;28;20444;-84
2023/07/05 03:04:12;;;;;;;15.73;13.03;;;;;;;21.74;97.74;94767.31;5076683;28;20928;-84
2023/07/05 03:06:39;;;;;;;19.43;13.13;;;;;;;21.69;97.77;94756.44;5076699;28;20458;-84
2023/07/05 03:09:09;;;;;;;15.77;14.00;;;;;;;21.64;98.23;94751.66;5076858;28;20828;-84
2023/07/05 03:11:40;;;;;;;19.07;12.37;;;;;;;21.63;98.48;94752.69;5076558;28;20563;-84
2023/07/05 03:14:06;;;;;;;19.13;12.93;;;;;;;21.48;99.06;94741.38;5076452;28;20448;-83
2023/07/05 03:16:33;;;;;;;16.63;13.40;;;;;;;21.54;99.13;94751.22;5076181;28;20434;-84
2023/07/05 03:19:00;;;;;;;16.00;14.17;;;;;;;21.56;99.68;94748.34;5076282;28;20820;-84
2023/07/05 03:21:27;;;;;;;15.30;13.70;;;;;;;21.62;99.54;94747.56;5041408;28;20451;-84
2023/07/05 03:23:54;;;;;;;17.07;13.00;;;;;;;21.73;99.56;94748.81;5075729;28;20929;-84
2023/07/05 03:26:20;;;;;;;15.53;13.80;;;;;;;21.72;98.63;94750.69;5076119;28;20443;-85
2023/07/05 03:28:49;;;;;;;19.67;13.23;;;;;;;21.71;98.25;94745.53;5076146;28;20784;-85
2023/07/05 03:31:17;;;;;;;16.23;13.50;;;;;;;21.73;98.10;94738.97;5076108;28;20482;-84
2023/07/05 03:33:45;;;;;;;16.93;13.67;;;;;;;21.90;97.48;94750.06;5075903;28;20446;-84
2023/07/05 03:36:13;;;;;;;17.53;14.67;;;;;;;22.06;96.91;94743.56;5076287;28;20432;-84
2023/07/05 03:38:41;;;;;;;16.87;14.80;;;;;;;22.10;96.31;94744.81;5063390;28;20483;-85
2023/07/05 03:41:11;;;;;;;21.00;14.20;;;;;;;22.37;96.55;94746.47;5055893;28;20925;-84
2023/07/05 03:43:38;;;;;;;15.47;13.83;;;;;;;22.67;94.85;94746.84;5055865;28;20436;-85
2023/07/05 03:46:09;;;;;;;15.67;13.53;;;;;;;22.90;92.93;94753.63;5055767;28;20435;-84
2023/07/05 03:48:38;;;;;;;15.40;12.80;;;;;;;22.74;93.04;94747.66;5055256;28;20843;-85
2023/07/05 03:51:11;;;;;;;19.50;13.80;;;;;;;23.04;92.68;94748.03;5055563;28;20468;-85
2023/07/05 03:53:39;;;;;;;14.37;12.90;;;;;;;23.13;91.21;94752.16;5055857;28;20431;-84
2023/07/05 03:56:09;;;;;;;20.83;13.63;;;;;;;23.18;90.08;94744.28;5055143;28;20835;-85
2023/07/05 03:58:38;;;;;;;15.40;13.80;;;;;;;22.88;92.20;94740.47;5054726;28;21027;-85
2023/07/05 04:01:12;;;;;;;16.80;14.47;;;;;;;22.89;93.48;94734.09;5054686;28;20453;-84
2023/07/05 04:03:39;;;;;;;22.70;15.10;;;;;;;23.09;92.93;94742.03;5054850;28;20866;-85
2023/07/05 04:06:06;;;;;;;17.63;14.60;;;;;;;23.35;92.24;94744.63;5055729;28;20453;-84
2023/07/05 04:08:33;;;;;;;16.63;13.80;;;;;;;23.41;90.90;94756.34;5055735;28;20444;-84
2023/07/05 04:11:00;;;;;;;18.30;14.13;;;;;;;23.41;91.31;94757.16;5054906;28;20486;-79
2023/07/05 04:13:27;;;;;;;18.07;14.27;;;;;;;23.43;90.23;94760.47;5054627;28;20451;-81
2023/07/05 04:16:01;;;;;;;18.00;14.93;;;;;;;23.40;89.59;94760.88;5053925;28;20451;-80
2023/07/05 04:18:31;;;;;;;16.73;13.97;;;;;;;23.52;89.88;94771.75;5054034;28;20446;-81
2023/07/05 04:20:58;;;;;;;23.33;15.37;;;;;;;23.69;89.22;94772.94;5054000;28;20449;-79
2023/07/05 04:23:26;;;;;;;18.10;14.30;;;;;;;23.87;88.92;94769.56;5054190;28;20448;-80
2023/07/05 04:25:59;;;;;;;17.23;13.40;;;;;;;24.27;87.74;94774.66;5054162;28;20452;-80
2023/07/05 04:28:26;;;;;;;17.03;13.50;;;;;;;24.67;84.53;94775.22;5054307;28;20464;-79
2023/07/05 04:30:53;;;;;;;18.77;13.50;;;;;;;25.01;82.69;94784.63;5054290;28;20491;-86
2023/07/05 04:33:23;;;;;;;14.33;12.83;;;;;;;25.26;81.52;94781.91;5054929;28;20444;-85
2023/07/05 04:35:52;;;;;;;16.23;14.10;;;;;;;25.16;79.29;94785.09;5052923;28;20480;-85
2023/07/05 04:38:19;;;;;;;19.97;13.03;;;;;;;25.25;80.25;94791.00;5054659;28;20434;-85
2023/07/05 04:41:01;;;;;;;16.30;13.40;;;;;;;25.45;79.15;94791.59;5054342;28;20430;-85
2023/07/05 04:43:29;;;;;;;18.53;13.00;;;;;;;25.76;78.47;94798.72;5054717;28;20452;-85
2023/07/05 04:45:57;;;;;;;17.67;12.47;;;;;;;26.02;77.44;94802.06;5054061;28;20445;-85
2023/07/05 04:48:25;;;;;;;14.13;12.53;;;;;;;26.30;75.67;94801.47;5054038;28;20434;-85
2023/07/05 04:50:54;;;;;;;15.93;12.33;;;;;;;26.59;74.38;94799.81;5053889;28;20469;-85
2023/07/05 04:53:22;;;;;;;16.50;12.70;;;;;;;26.83;72.72;94801.50;5054577;28;20453;-86
2023/07/05 04:55:50;;;;;;;15.80;13.40;;;;;;;27.04;72.05;94805.53;5054560;28;20501;-85
2023/07/05 04:58:18;;;;;;;13.63;12.23;;;;;;;27.16;71.38;94807.16;5053857;28;20928;-85
2023/07/05 05:00:49;;;;;;;14.50;13.10;;;;;;;27.34;71.76;94802.72;5053177;28;20919;-85
2023/07/05 05:03:17;;;;;;;20.47;13.33;;;;;;;27.56;69.95;94808.31;5054906;28;20442;-86
2023/07/05 05:05:45;;;;;;;13.47;12.10;;;;;;;27.72;69.27;94813.81;5054658;28;20425;-85
2023/07/05 05:08:14;;;;;;;16.10;11.67;;;;;;;27.99;69.16;94805.16;5053975;28;20450;-85
2023/07/05 05:10:40;;;;;;;14.73;13.17;;;;;;;28.17;68.07;94807.69;5053861;28;20481;-85
2023/07/05 05:13:08;;;;;;;14.83;12.80;;;;;;;28.35;67.07;94802.13;5054191;28;20441;-85
2023/07/05 05:15:37;;;;;;;13.77;12.47;;;;;;;28.53;66.60;94794.84;5053831;28;20928;-85
2023/07/05 05:18:04;;;;;;;13.60;11.77;;;;;;;28.71;65.06;94800.03;5053895;28;20434;-86
2023/07/05 05:20:31;;;;;;;15.17;12.30;;;;;;;28.84;64.59;94796.19;5053655;28;20438;-85
2023/07/05 05:22:58;;;;;;;13.67;12.37;;;;;;;29.01;64.28;94793.53;5053543;28;20944;-86
2023/07/05 05:25:27;;;;;;;14.60;12.83;;;;;;;29.11;63.72;94802.59;5053630;28;20441;-86
2023/07/05 05:27:54;;;;;;;12.83;11.53;;;;;;;29.17;63.51;94800.78;5053932;28;20431;-86
2023/07/05 05:30:21;;;;;;;15.13;12.27;;;;;;;29.28;63.41;94799.88;5054406;28;20448;-85
2023/07/05 05:32:48;;;;;;;15.30;12.90;;;;;;;29.42;63.89;94801.16;5053364;28;20484;-85
2023/07/05 05:35:15;;;;;;;13.77;12.07;;;;;;;29.54;61.63;94811.91;5053409;28;20947;-86
2023/07/05 05:37:42;;;;;;;13.00;11.80;;;;;;;29.51;60.74;94799.69;5053608;28;20995;-85
2023/07/05 05:40:10;;;;;;;13.80;11.70;;;;;;;29.69;60.88;94803.16;5053282;28;20437;-85
2023/07/05 05:42:39;;;;;;;18.03;11.00;;;;;;;29.72;61.37;94799.94;5054427;28;21181;-86
2023/07/05 05:45:06;;;;;;;16.93;13.70;;;;;;;29.79;60.61;94801.41;5053517;28;20453;-85
2023/07/05 05:47:33;;;;;;;14.80;11.87;;;;;;;29.87;59.85;94813.69;5035843;28;20452;-83
2023/07/05 05:50:00;;;;;;;12.33;11.07;;;;;;;30.05;60.12;94815.25;5053280;28;20453;-85
2023/07/05 05:52:27;;;;;;;15.90;11.83;;;;;;;30.03;60.51;94806.56;5053461;28;20492;-85
2023/07/05 05:54:54;;;;;;;14.40;11.20;;;;;;;30.05;62.19;94821.50;5053321;28;20481;-85
2023/07/05 05:57:20;;;;;;;12.70;11.40;;;;;;;30.23;60.37;94816.81;5054330;28;20434;-90
2023/07/05 05:59:49;;;;;;;13.77;11.63;;;;;;;30.35;59.35;94820.19;5053850;28;20442;-89
2023/07/05 06:02:16;;;;;;;19.43;12.50;;;;;;;30.36;60.21;94824.53;5054456;28;20426;-90
2023/07/05 06:04:43;;;;;;;14.63;13.13;;;;;;;30.53;58.54;94814.44;5054416;28;20944;-90
2023/07/05 06:07:10;;;;;;;17.90;12.30;;;;;;;30.63;59.01;94822.69;5054326;28;20458;-90
2023/07/05 06:09:40;;;;;;;14.30;12.00;;;;;;;30.78;58.72;94805.75;5058009;28;20429;-90
2023/07/05 06:12:08;;;;;;;14.10;12.60;;;;;;;30.89;58.67;94803.94;5074823;28;20489;-89
2023/07/05 06:14:34;;;;;;;11.93;10.73;;;;;;;31.03;57.59;94802.44;5077293;28;20817;-89
2023/07/05 06:17:03;;;;;;;16.90;12.10;;;;;;;31.20;56.67;94799.59;5077342;28;20810;-90
2023/07/05 06:19:30;;;;;;;18.80;13.30;;;;;;;31.04;56.39;94799.47;5078069;28;20448;-87
2023/07/05 06:21:57;;;;;;;14.50;12.37;;;;;;;31.19;57.67;94797.97;5077745;28;20444;-83
2023/07/05 06:24:23;;;;;;;15.90;11.97;;;;;;;30.56;59.49;94803.09;5057904;28;20476;-84
2023/07/05 06:26:50;;;;;;;17.67;14.00;;;;;;;30.48;59.70;94790.00;5077211;28;20429;-85
2023/07/05 06:29:17;;;;;;;14.13;12.60;;;;;;;30.63;61.11;94789.34;5077264;28;20429;-84
2023/07/05 06:31:44;;;;;;;24.93;12.63;;;;;;;30.31;61.70;94783.88;5076879;28;20468;-84
2023/07/05 06:34:12;;;;;;;13.70;12.20;;;;;;;30.25;62.43;94784.91;5077220;28;20429;-88
2023/07/05 06:36:40;;;;;;;18.47;12.87;;;;;;;30.12;62.02;94776.13;5077179;28;20444;-89
2023/07/05 06:39:07;;;;;;;14.07;12.00;;;;;;;30.32;62.32;94780.09;5077072;28;20447;-88
2023/07/05 06:41:34;;;;;;;26.03;13.80;;;;;;;30.54;60.75;94775.44;5077759;28;20467;-88
2023/07/05 06:44:01;;;;;;;15.20;13.10;;;;;;;30.87;60.80;94781.69;5070676;28;20448;-87
2023/07/05 06:46:28;;;;;;;16.07;13.70;;;;;;;30.80;59.21;94779.22;5076032;28;20951;-88
2023/07/05 06:48:55;;;;;;;21.40;11.50;;;;;;;30.99;60.81;94777.75;5075938;28;20452;-87
2023/07/05 06:51:31;;;;;;;16.03;11.80;;;;;;;31.37;59.91;94781.28;5076917;28;20484;-88
2023/07/05 06:53:58;;;;;;;13.73;11.17;;;;;;;31.65;57.82;94777.34;5076847;28;20439;-90
2023/07/05 06:56:25;;;;;;;19.03;12.77;;;;;;;31.68;56.06;94768.69;5077279;28;20476;-88
2023/07/05 06:58:52;;;;;;;14.13;12.60;;;;;;;31.69;56.39;94768.41;5077933;28;20800;-91
2023/07/05 07:01:21;;;;;;;17.83;12.30;;;;;;;31.47;56.26;94775.09;5078345;28;20475;-91
2023/07/05 07:03:47;;;;;;;13.43;12.03;;;;;;;31.23;58.71;94774.69;5078018;28;20445;-90
2023/07/05 07:06:14;;;;;;;13.23;12.00;;;;;;;31.34;57.43;94770.97;5064542;28;20932;-84
2023/07/05 07:08:43;;;;;;;19.23;12.10;;;;;;;31.30;56.33;94778.00;5058718;28;20965;-85
2023/07/05 07:11:11;;;;;;;19.43;11.23;;;;;;;31.55;57.83;94770.00;5038444;28;20449;-89
2023/07/05 07:13:38;;;;;;;13.47;12.10;;;;;;;31.65;58.42;94769.22;5057545;28;20445;-91
2023/07/05 07:16:07;;;;;;;13.37;10.53;;;;;;;31.70;54.92;94770.06;5057255;28;20446;-91
2023/07/05 07:18:37;;;;;;;11.97;10.17;;;;;;;31.81;56.60;94765.53;5057760;28;20820;-91
2023/07/05 07:21:05;;;;;;;22.33;12.40;;;;;;;31.87;55.62;94767.19;5057688;28;20499;-90
2023/07/05 07:23:32;;;;;;;12.63;11.40;;;;;;;31.91;57.15;94765.56;5056333;28;20457;-88
2023/07/05 07:26:06;;;;;;;12.10;10.80;;;;;;;31.90;56.50;94773.97;5056565;28;20783;-88
2023/07/05 07:28:33;;;;;;;12.47;11.10;;;;;;;31.89;56.02;94764.19;5057053;28;20426;-89
2023/07/05 07:31:20;;;;;;;18.57;10.93;;;;;;;31.50;54.55;94758.28;5057514;28;20438;-92
2023/07/05 07:33:48;;;;;;;13.70;11.43;;;;;;;31.12;55.05;94762.91;5057121;28;20461;-91
2023/07/05 07:36:16;;;;;;;17.80;11.00;;;;;;;30.98;55.99;94761.75;5056617;28;20446;-89
2023/07/05 07:38:44;;;;;;;10.80;9.70;;;;;;;30.89;55.64;94752.44;5057082;28;20442;-90
2023/07/05 07:41:18;;;;;;;11.10;9.97;;;;;;;30.76;57.63;94762.66;5056981;28;20800;-91
2023/07/05 07:43:46;;;;;;;13.17;11.77;;;;;;;30.99;58.16;94757.97;5057228;28;20445;-90
2023/07/05 07:46:15;;;;;;;13.63;12.30;;;;;;;30.95;58.53;94754.13;5076524;28;20449;-91
2023/07/05 07:48:43;;;;;;;14.33;10.70;;;;;;;30.85;58.02;94754.03;5057980;28;20445;-90
2023/07/05 07:51:11;;;;;;;13.80;12.40;;;;;;;31.22;58.80;94756.75;5075825;28;20854;-86
2023/07/05 07:53:38;;;;;;;15.70;12.20;;;;;;;31.37;57.60;94749.56;5056173;28;20438;-89
2023/07/05 07:56:11;;;;;;;13.30;11.63;;;;;;;31.54;56.90;94753.97;5055743;28;20845;-92
2023/07/05 07:58:40;;;;;;;14.83;12.50;;;;;;;31.71;57.91;94739.16;5056288;28;20511;-89
2023/07/05 08:01:14;;;;;;;13.30;11.90;;;;;;;31.40;55.99;94746.31;5056352;28;20441;-89
2023/07/05 08:03:41;;;;;;;13.40;12.00;;;;;;;31.62;57.13;94735.28;5074296;28;20447;-89
2023/07/05 08:06:08;;;;;;;17.27;12.33;;;;;;;31.90;57.17;94746.81;5075888;28;20484;-91
2023/07/05 08:08:35;;;;;;;17.17;13.17;;;;;;;31.94;55.35;94747.94;5058099;28;20441;-92
2023/07/05 08:11:03;;;;;;;15.83;12.47;;;;;;;31.80;56.30;94747.59;5076557;28;20492;-92
2023/07/05 08:13:30;;;;;;;12.77;11.57;;;;;;;31.94;56.70;94743.31;5075603;28;20520;-92
2023/07/05 08:15:59;;;;;;;14.90;13.00;;;;;;;32.19;56.21;94741.75;5086809;28;20539;-89
2023/07/05 08:18:26;;;;;;;21.53;11.80;;;;;;;32.23;54.56;94745.56;5077786;28;20445;-89
2023/07/05 08:20:53;;;;;;;14.00;12.57;;;;;;;32.23;54.50;94740.94;5075982;28;20535;-90
2023/07/05 08:23:20;;;;;;;12.93;11.63;;;;;;;32.36;55.62;94745.06;5075817;28;20436;-89
2023/07/05 08:25:54;;;;;;;13.23;11.87;;;;;;;32.21;52.68;94748.53;5075307;28;20820;-91
2023/07/05 08:28:21;;;;;;;12.70;11.43;;;;;;;31.80;55.46;94747.59;5057356;28;20441;-89
2023/07/05 08:30:54;;;;;;;15.97;11.27;;;;;;;32.02;56.04;94745.50;5080334;28;20436;-90
2023/07/05 08:33:22;;;;;;;13.03;11.70;;;;;;;32.16;55.43;94740.38;5081473;28;20529;-91
2023/07/05 08:35:50;;;;;;;16.60;12.10;;;;;;;32.26;55.61;94742.34;5081887;28;20444;-88
2023/07/05 08:38:18;;;;;;;17.87;14.83;;;;;;;32.29;55.42;94741.78;5080548;28;20424;-88
2023/07/05 08:40:51;;;;;;;13.13;11.83;;;;;;;32.39;54.71;94744.53;5075530;28;20490;-87
2023/07/05 08:43:33;;;;;;;12.47;11.17;;;;;;;32.27;51.44;94742.06;5075207;28;20421;-88
2023/07/05 08:46:04;;;;;;;12.93;10.10;;;;;;;32.47;53.02;94741.28;5073210;28;20523;-88
2023/07/05 08:48:34;;;;;;;11.60;9.70;;;;;;;32.53;51.65;94740.19;5074590;28;20440;-88
2023/07/05 08:51:03;;;;;;;19.40;10.90;;;;;;;32.52;53.69;94735.03;5073973;28;20527;-88
2023/07/05 08:53:30;;;;;;;12.03;10.93;;;;;;;32.58;53.21;94723.88;5073769;28;20476;-86
2023/07/05 08:56:03;;;;;;;13.97;10.30;;;;;;;32.25;53.29;94729.81;5073429;28;20841;-88
2023/07/05 08:58:39;;;;;;;12.33;11.03;;;;;;;31.39;52.35;94714.84;5073718;28;20448;-88
2023/07/05 09:01:12;;;;;;;18.80;10.47;;;;;;;31.18;53.85;94720.41;5073574;28;20432;-87
2023/07/05 09:03:40;;;;;;;11.53;10.33;;;;;;;31.22;52.74;94719.63;5073172;28;20439;-87
2023/07/05 09:06:22;;;;;;;11.17;10.07;;;;;;;31.11;52.60;94717.91;5073604;28;20440;-88
2023/07/05 09:09:04;;;;;;;11.00;9.90;;;;;;;30.93;55.37;94716.44;5073154;28;20453;-88
2023/07/05 09:11:43;;;;;;;11.27;10.10;;;;;;;30.71;55.09;94713.03;5073281;28;20846;-88
2023/07/05 09:14:22;;;;;;;11.90;9.57;;;;;;;30.89;55.39;94714.50;5054595;28;20503;-85
2023/07/05 09:16:56;;;;;;;12.93;8.17;;;;;;;30.42;53.97;94710.63;5054660;28;20437;-86
2023/07/05 09:19:35;;;;;;;10.40;9.40;;;;;;;30.16;56.35;94706.03;5073343;28;20449;-87
2023/07/05 09:22:06;;;;;;;11.07;10.07;;;;;;;30.02;56.93;94699.38;5073088;28;20453;-87
2023/07/05 09:24:39;;;;;;;14.83;9.70;;;;;;;30.10;59.16;94697.06;5073306;28;20536;-87
2023/07/05 09:27:11;;;;;;;9.43;8.53;;;;;;;29.90;57.42;94691.41;5073270;28;20938;-87
2023/07/05 09:29:46;;;;;;;9.30;8.30;;;;;;;29.94;57.07;94684.41;5073296;28;20470;-86
2023/07/05 09:32:15;;;;;;;11.53;9.57;;;;;;;29.69;57.72;94682.25;5072873;28;20480;-87
2023/07/05 09:34:47;;;;;;;9.70;8.90;;;;;;;29.81;59.60;94690.25;5073081;28;20440;-86
2023/07/05 09:37:17;;;;;;;10.33;9.07;;;;;;;29.51;59.62;94694.25;5073058;28;20796;-86
2023/07/05 09:39:56;;;;;;;12.40;10.27;;;;;;;29.33;60.11;94686.41;5073277;28;20457;-86
2023/07/05 09:42:27;;;;;;;10.23;9.23;;;;;;;29.02;60.19;94678.97;5037361;28;20457;-86
2023/07/05 09:44:54;;;;;;;10.07;8.97;;;;;;;29.26;61.76;94681.19;5072926;28;20445;-87
2023/07/05 09:47:22;;;;;;;9.60;8.70;;;;;;;29.28;61.92;94680.94;5037238;28;20449;-87
2023/07/05 09:49:50;;;;;;;12.27;9.93;;;;;;;29.33;63.20;94675.59;5072823;28;21036;-86
2023/07/05 09:52:22;;;;;;;11.13;9.90;;;;;;;29.38;62.24;94678.34;5072966;28;20476;-87
2023/07/05 09:54:54;;;;;;;11.50;10.50;;;;;;;29.44;62.25;94676.50;5072355;28;20991;-86
2023/07/05 09:57:24;;;;;;;14.83;10.10;;;;;;;29.51;60.39;94678.00;5073020;28;20438;-86
2023/07/05 09:59:52;;;;;;;11.43;10.33;;;;;;;29.54;63.55;94679.38;5072629;28;20457;-87
2023/07/05 10:02:23;;;;;;;10.47;9.47;;;;;;;29.62;60.99;94678.94;5072562;28;20539;-86
2023/07/05 10:04:53;;;;;;;12.90;10.70;;;;;;;29.67;62.29;94665.47;5072924;28;20444;-86
2023/07/05 10:07:23;;;;;;;11.70;9.97;;;;;;;29.62;60.43;94667.31;5073178;28;20472;-87
2023/07/05 10:09:59;;;;;;;10.17;9.17;;;;;;;29.62;60.46;94667.31;5072475;28;20812;-87
2023/07/05 10:12:32;;;;;;;11.33;10.07;;;;;;;29.60;60.08;94662.16;5072850;28;20585;-87
2023/07/05 10:14:59;;;;;;;10.87;9.83;;;;;;;29.63;61.84;94658.13;5072445;28;20489;-87
2023/07/05 10:17:40;;;;;;;13.03;11.60;;;;;;;29.64;61.42;94665.16;5072564;28;20436;-87
2023/07/05 10:20:18;;;;;;;10.37;9.30;;;;;;;29.54;62.03;94674.78;5072461;28;20478;-87
2023/07/05 10:22:45;;;;;;;11.27;10.10;;;;;;;29.43;61.41;94670.28;5072662;28;20473;-86
2023/07/05 10:25:17;;;;;;;14.90;9.33;;;;;;;29.41;60.80;94667.03;5072532;28;20445;-87
2023/07/05 10:27:46;;;;;;;17.33;10.30;;;;;;;29.40;62.09;94659.16;5072411;28;20451;-86
2023/07/05 10:30:16;;;;;;;11.47;10.30;;;;;;;29.40;62.10;94657.28;5072649;28;20441;-86
2023/07/05 10:32:44;;;;;;;13.33;10.30;;;;;;;29.47;62.02;94676.03;5072449;28;20822;-87
2023/07/05 10:35:23;;;;;;;13.53;11.00;;;;;;;29.47;60.91;94676.84;5072277;28;20448;-87
2023/07/05 10:37:50;;;;;;;14.30;10.20;;;;;;;29.46;62.31;94675.22;5072424;28;20449;-86
2023/07/05 10:40:17;;;;;;;13.90;10.07;;;;;;;29.39;63.36;94673.75;5072501;28;20449;-87
2023/07/05 10:42:50;;;;;;;12.10;10.23;;;;;;;29.24;65.35;94666.28;5072300;28;20942;-87
2023/07/05 10:45:19;;;;;;;15.60;10.17;;;;;;;29.05;63.80;94654.97;5072335;28;20449;-87
2023/07/05 10:47:48;;;;;;;14.70;9.70;;;;;;;28.94;64.53;94645.09;5072174;28;20444;-86
2023/07/05 10:50:17;;;;;;;11.53;9.60;;;;;;;28.85;65.89;94646.56;5072282;28;20927;-87
2023/07/05 10:52:49;;;;;;;11.73;10.63;;;;;;;28.88;66.96;94656.88;5072100;28;20485;-86
2023/07/05 10:55:19;;;;;;;13.53;10.20;;;;;;;28.87;67.49;94658.75;5072110;28;20468;-86
2023/07/05 10:57:53;;;;;;;15.30;10.77;;;;;;;28.74;66.40;94656.41;5071964;28;21007;-87
2023/07/05 11:00:28;;;;;;;11.73;10.53;;;;;;;28.78;67.99;94672.91;5075042;28;20432;-86
2023/07/05 11:03:01;;;;;;;12.63;11.30;;;;;;;28.65;69.00;94688.41;5075845;28;20543;-87
2023/07/05 11:05:39;;;;;;;16.53;11.20;;;;;;;28.57;71.08;94705.00;5075883;28;20942;-86
2023/07/05 11:08:16;;;;;;;10.17;9.17;;;;;;;28.44;66.30;94693.75;5075757;28;20439;-86
2023/07/05 11:10:43;;;;;;;10.13;9.13;;;;;;;27.78;67.14;94698.78;5075626;28;20460;-86
2023/07/05 11:13:15;;;;;;;9.87;8.87;;;;;;;27.41;67.27;94695.59;5075341;28;20806;-85
2023/07/05 11:15:42;;;;;;;9.70;6.73;;;;;;;27.19;63.46;94702.69;5075658;28;20778;-81
2023/07/05 11:18:15;;;;;;;10.17;6.83;;;;;;;26.65;64.29;94718.16;5075477;28;20447;-86
2023/07/05 11:20:54;;;;;;;8.90;6.80;;;;;;;26.03;65.78;94710.44;5075810;28;20444;-80
2023/07/05 11:23:56;;;;;;;8.03;6.70;;;;;;;25.85;65.64;94713.19;5076106;28;20463;-88
2023/07/05 11:26:31;;;;;;;7.67;6.30;;;;;;;25.53;65.83;94701.81;5054505;28;20449;-88
2023/07/05 11:28:58;;;;;;;6.10;5.30;;;;;;;25.39;66.93;94701.13;5054123;28;20430;-87
2023/07/05 11:31:57;;;;;;;7.40;6.40;;;;;;;25.35;67.48;94697.25;5054017;28;20449;-87
2023/07/05 11:34:40;;;;;;;6.00;5.10;;;;;;;25.18;68.18;94702.44;5053736;28;21114;-86
2023/07/05 11:37:51;;;;;;;7.20;6.47;;;;;;;25.21;68.88;94706.53;5053779;28;20478;-86
2023/07/05 11:41:00;;;;;;;9.77;5.83;;;;;;;24.83;71.01;94712.91;5020215;28;20777;-86
2023/07/05 11:43:37;;;;;;;7.97;6.13;;;;;;;24.59;73.67;94714.59;5053548;28;20959;-85